Time;durP1;ratioP1;P1;durP2;ratioP2;P2;SDS_P1;SDS_P2;PMS_P1;PMS_P2;Temp;Humidity;BMP_temperature;BMP_pressure;BME280_temperature;BME280_humidity;BME280_pressure;Samples;Min_cycle;Max_cycle;Signal;HPM_P1;HPM_P2
2022/08/09 00:01:35;;;;;;;2.20;1.67;;;19.50;51.00;;;;;;4179487;28;20224;-72
2022/08/09 00:03:37;;;;;;;2.17;1.60;;;19.50;51.30;;;;;;4183582;28;20331;-74
2022/08/09 00:05:39;;;;;;;4.00;1.50;;;19.50;51.50;;;;;;4182723;28;20266;-73
2022/08/09 00:07:42;;;;;;;2.17;1.50;;;19.40;51.40;;;;;;4187107;28;20637;-74
2022/08/09 00:09:44;;;;;;;2.37;1.53;;;19.40;52.20;;;;;;4184649;28;20688;-73
2022/08/09 00:11:46;;;;;;;1.80;1.60;;;19.40;52.40;;;;;;4185763;28;20790;-73
2022/08/09 00:13:50;;;;;;;2.57;1.97;;;19.30;53.10;;;;;;4188239;28;20231;-73
2022/08/09 00:15:52;;;;;;;2.40;1.77;;;19.30;53.20;;;;;;4190727;28;20221;-74
2022/08/09 00:17:54;;;;;;;3.17;1.70;;;19.30;53.10;;;;;;4191993;28;20215;-74
2022/08/09 00:19:56;;;;;;;2.67;1.80;;;19.30;53.70;;;;;;4191804;28;20254;-73
2022/08/09 00:21:58;;;;;;;2.10;1.50;;;19.20;53.50;;;;;;4196518;28;20692;-74
2022/08/09 00:24:00;;;;;;;2.33;1.70;;;19.10;53.60;;;;;;4187167;28;20310;-74
2022/08/09 00:26:02;;;;;;;3.07;1.83;;;19.10;54.00;;;;;;4188034;28;20296;-74
2022/08/09 00:28:05;;;;;;;2.20;1.73;;;19.10;53.80;;;;;;4189776;28;20242;-74
2022/08/09 00:30:10;;;;;;;2.27;1.70;;;19.10;53.80;;;;;;4187403;28;20208;-74
2022/08/09 00:32:11;;;;;;;3.13;2.00;;;19.00;53.70;;;;;;4185103;28;20225;-73
2022/08/09 00:34:13;;;;;;;2.90;1.67;;;19.00;53.80;;;;;;4181622;28;20253;-74
2022/08/09 00:36:16;;;;;;;3.37;1.67;;;19.00;54.00;;;;;;4191580;28;20203;-74
2022/08/09 00:38:19;;;;;;;1.67;1.43;;;19.00;54.20;;;;;;4187742;28;20620;-74
2022/08/09 00:40:21;;;;;;;2.70;1.87;;;18.90;54.10;;;;;;4178533;28;20198;-74
2022/08/09 00:42:23;;;;;;;2.93;1.93;;;18.90;54.20;;;;;;4184154;28;20230;-73
2022/08/09 00:44:25;;;;;;;2.43;1.70;;;18.90;54.70;;;;;;4190782;28;20246;-74
2022/08/09 00:46:28;;;;;;;2.33;1.60;;;18.90;54.70;;;;;;4181682;28;20217;-73
2022/08/09 00:48:31;;;;;;;1.80;1.57;;;18.80;54.80;;;;;;4188017;28;20213;-74
2022/08/09 00:50:33;;;;;;;2.37;1.67;;;18.80;55.10;;;;;;4183645;28;20264;-73
2022/08/09 00:52:35;;;;;;;2.37;1.60;;;18.80;54.90;;;;;;4188929;28;20310;-74
2022/08/09 00:54:37;;;;;;;1.57;1.47;;;18.80;55.00;;;;;;4186884;28;20245;-74
2022/08/09 00:56:38;;;;;;;2.57;1.87;;;18.80;55.30;;;;;;4185625;28;20206;-74
2022/08/09 00:58:40;;;;;;;3.30;1.80;;;18.70;55.50;;;;;;4184577;28;20290;-74
2022/08/09 01:00:44;;;;;;;2.63;1.90;;;18.70;55.40;;;;;;4180192;28;20247;-74
2022/08/09 01:02:50;;;;;;;2.00;1.80;;;18.70;55.60;;;;;;4190675;28;20270;-74
2022/08/09 01:04:57;;;;;;;2.30;1.70;;;18.60;55.60;;;;;;4183926;28;20246;-74
2022/08/09 01:07:11;;;;;;;2.17;1.70;;;18.70;55.70;;;;;;4183840;28;20263;-73
2022/08/09 01:09:33;;;;;;;3.97;1.83;;;18.60;55.70;;;;;;4185770;28;20304;-74
2022/08/09 01:11:50;;;;;;;2.70;1.80;;;18.60;55.70;;;;;;4187398;28;20223;-74
2022/08/09 01:13:57;;;;;;;2.57;1.73;;;18.60;56.10;;;;;;4184400;28;20322;-73
2022/08/09 01:16:00;;;;;;;2.53;1.90;;;18.50;56.20;;;;;;4186847;28;20314;-74
2022/08/09 01:18:08;;;;;;;2.57;1.80;;;18.50;56.50;;;;;;4185274;28;20233;-74
2022/08/09 01:20:14;;;;;;;2.03;1.70;;;18.50;56.20;;;;;;4185109;28;20284;-74
2022/08/09 01:22:50;;;;;;;1.90;1.50;;;18.40;56.40;;;;;;4184867;28;20317;-74
2022/08/09 01:25:00;;;;;;;3.00;1.80;;;18.40;56.70;;;;;;4183095;28;20245;-74
2022/08/09 01:27:07;;;;;;;2.73;1.93;;;18.40;57.00;;;;;;4187425;28;20217;-74
2022/08/09 01:29:11;;;;;;;1.80;1.63;;;18.40;57.10;;;;;;4188801;28;20220;-74
2022/08/09 01:31:16;;;;;;;3.80;2.10;;;18.30;57.30;;;;;;4184431;28;20203;-74
2022/08/09 01:33:22;;;;;;;4.80;2.40;;;18.30;57.50;;;;;;4187713;28;20233;-73
2022/08/09 01:35:30;;;;;;;2.40;1.60;;;18.30;57.80;;;;;;4186658;28;20314;-74
2022/08/09 01:37:33;;;;;;;2.20;1.80;;;18.30;58.30;;;;;;4182769;28;20297;-74
2022/08/09 01:39:36;;;;;;;1.90;1.70;;;18.20;59.00;;;;;;4186956;28;20718;-74
2022/08/09 01:41:41;;;;;;;2.37;1.80;;;18.20;58.70;;;;;;4183279;28;20226;-74
2022/08/09 01:43:47;;;;;;;2.20;1.87;;;18.20;59.30;;;;;;4185886;28;20297;-73
2022/08/09 01:45:51;;;;;;;2.90;1.87;;;18.20;59.20;;;;;;4183317;28;20231;-74
2022/08/09 01:47:55;;;;;;;3.07;1.80;;;18.10;59.20;;;;;;4188789;28;20286;-73
2022/08/09 01:49:58;;;;;;;3.10;2.03;;;18.10;59.20;;;;;;4182155;28;20288;-74
2022/08/09 01:52:04;;;;;;;2.30;1.80;;;18.10;59.60;;;;;;4192519;28;20236;-74
2022/08/09 01:54:10;;;;;;;2.30;1.90;;;18.00;59.70;;;;;;4182800;28;20222;-74
2022/08/09 01:56:13;;;;;;;2.43;1.90;;;18.00;60.00;;;;;;4185432;28;20739;-74
2022/08/09 01:58:16;;;;;;;4.87;1.80;;;18.00;60.40;;;;;;4183571;28;20711;-74
2022/08/09 02:00:20;;;;;;;1.77;1.67;;;18.00;60.10;;;;;;4186902;28;20224;-74
2022/08/09 02:02:25;;;;;;;3.30;2.10;;;18.00;60.60;;;;;;4182810;28;20229;-74
2022/08/09 02:04:29;;;;;;;3.37;2.07;;;18.00;61.10;;;;;;4184873;28;20235;-74
2022/08/09 02:08:55;;;;;;;2.40;1.80;;;17.90;62.60;;;;;;4185411;28;20201;-74
2022/08/09 02:10:58;;;;;;;2.23;1.87;;;17.90;62.90;;;;;;4183282;28;20213;-74
2022/08/09 02:13:04;;;;;;;2.43;1.90;;;17.90;62.90;;;;;;4184785;28;20218;-74
2022/08/09 02:15:08;;;;;;;2.13;1.77;;;17.90;64.40;;;;;;4187359;28;20240;-74
2022/08/09 02:17:13;;;;;;;2.10;1.87;;;17.80;66.50;;;;;;4182582;28;20585;-73
2022/08/09 02:19:15;;;;;;;2.60;1.90;;;17.80;66.30;;;;;;4183931;28;20240;-73
2022/08/09 02:21:20;;;;;;;2.73;1.70;;;17.80;67.20;;;;;;4179254;28;20225;-74
2022/08/09 02:23:27;;;;;;;3.93;2.00;;;17.80;70.40;;;;;;4183272;28;20317;-74
2022/08/09 02:25:33;;;;;;;2.40;1.87;;;17.70;70.60;;;;;;4177299;28;20218;-74
2022/08/09 02:27:38;;;;;;;4.33;2.30;;;17.70;69.40;;;;;;4187636;28;20252;-74
2022/08/09 02:29:45;;;;;;;2.90;2.10;;;17.70;68.60;;;;;;4184144;28;20240;-74
2022/08/09 02:31:49;;;;;;;2.30;1.80;;;17.60;68.80;;;;;;4184040;28;20212;-74
2022/08/09 02:33:56;;;;;;;3.90;2.23;;;17.60;69.00;;;;;;4178550;28;20228;-74
2022/08/09 02:36:01;;;;;;;2.40;2.00;;;17.60;68.80;;;;;;4187832;28;20205;-74
2022/08/09 02:38:04;;;;;;;3.20;2.33;;;17.50;69.70;;;;;;4184698;28;20216;-73
2022/08/09 02:40:09;;;;;;;3.23;2.37;;;17.50;69.90;;;;;;4184787;28;20210;-74
2022/08/09 02:42:15;;;;;;;4.00;2.50;;;17.40;69.80;;;;;;4186904;28;20328;-74
2022/08/09 02:44:23;;;;;;;3.27;2.20;;;17.40;69.90;;;;;;4177601;28;20232;-74
2022/08/09 02:46:28;;;;;;;3.93;2.50;;;17.40;70.80;;;;;;4187347;28;20236;-74
2022/08/09 02:48:31;;;;;;;3.23;2.43;;;17.30;71.30;;;;;;4185420;28;20675;-74
2022/08/09 02:50:37;;;;;;;3.67;2.30;;;17.30;71.30;;;;;;4182447;28;20242;-74
2022/08/09 02:52:42;;;;;;;3.87;2.43;;;17.30;73.10;;;;;;4189810;28;20225;-74
2022/08/09 02:54:46;;;;;;;4.77;2.37;;;17.20;73.10;;;;;;4188174;28;20717;-72
2022/08/09 02:56:49;;;;;;;4.07;2.40;;;17.20;74.10;;;;;;4184820;28;20214;-74
2022/08/09 02:58:52;;;;;;;4.33;2.60;;;17.20;74.80;;;;;;4187346;28;20612;-73
2022/08/09 03:00:55;;;;;;;5.00;2.43;;;17.10;74.80;;;;;;4184327;28;20297;-73
2022/08/09 03:02:59;;;;;;;5.60;2.50;;;17.00;75.70;;;;;;4184129;28;20321;-73
2022/08/09 03:05:02;;;;;;;2.83;2.27;;;17.10;75.70;;;;;;4187844;28;20206;-73
2022/08/09 03:07:06;;;;;;;3.60;2.50;;;17.10;76.40;;;;;;4182816;28;20227;-74
2022/08/09 03:09:09;;;;;;;4.57;2.60;;;17.00;76.40;;;;;;4181181;28;20392;-73
2022/08/09 03:11:14;;;;;;;4.23;2.50;;;17.00;77.00;;;;;;4180031;28;20241;-73
2022/08/09 03:13:17;;;;;;;4.23;2.50;;;17.00;77.30;;;;;;4186435;28;20250;-73
2022/08/09 03:15:20;;;;;;;4.30;2.83;;;17.00;77.30;;;;;;4190737;28;20300;-73
2022/08/09 03:17:23;;;;;;;4.30;2.50;;;16.90;78.30;;;;;;4194060;28;20833;-73
2022/08/09 03:19:27;;;;;;;4.43;2.37;;;16.90;77.30;;;;;;4180419;28;20293;-73
2022/08/09 03:21:30;;;;;;;3.10;2.50;;;16.90;78.30;;;;;;4189633;28;20672;-73
2022/08/09 03:23:34;;;;;;;4.80;2.80;;;16.90;78.50;;;;;;4188324;28;20304;-73
2022/08/09 03:25:36;;;;;;;4.03;2.20;;;16.90;78.20;;;;;;4184276;28;20337;-74
2022/08/09 03:27:39;;;;;;;3.53;2.60;;;16.80;79.20;;;;;;4188260;28;20272;-73
2022/08/09 03:29:43;;;;;;;4.40;2.57;;;16.80;79.70;;;;;;4179236;28;20202;-73
2022/08/09 03:31:45;;;;;;;5.47;2.70;;;16.80;78.80;;;;;;4186533;28;20201;-73
2022/08/09 03:33:48;;;;;;;5.17;2.40;;;16.80;79.00;;;;;;4188113;28;20304;-73
2022/08/09 03:35:52;;;;;;;5.00;2.63;;;16.80;77.70;;;;;;4186214;28;20214;-73
2022/08/09 03:37:53;;;;;;;3.23;2.40;;;16.80;77.70;;;;;;4185007;28;20213;-74
2022/08/09 03:39:57;;;;;;;2.80;2.27;;;16.70;78.80;;;;;;4183317;28;20213;-73
2022/08/09 03:41:59;;;;;;;3.13;2.37;;;16.70;80.80;;;;;;4190621;28;20220;-73
2022/08/09 03:44:00;;;;;;;3.13;2.40;;;16.70;79.40;;;;;;4183016;28;20209;-73
2022/08/09 03:46:02;;;;;;;4.20;2.50;;;16.70;79.20;;;;;;4185767;28;20646;-73
2022/08/09 03:48:05;;;;;;;2.50;2.00;;;16.70;80.00;;;;;;4188263;28;20215;-73
2022/08/09 03:50:08;;;;;;;3.17;2.10;;;16.70;79.20;;;;;;4186122;28;20222;-73
2022/08/09 03:52:11;;;;;;;4.20;2.33;;;16.70;80.20;;;;;;4187681;28;20293;-73
2022/08/09 03:54:14;;;;;;;4.07;2.23;;;16.70;80.60;;;;;;4185915;28;20323;-74
2022/08/09 03:56:17;;;;;;;3.30;2.17;;;16.60;81.80;;;;;;4187878;28;20225;-73
2022/08/09 03:58:20;;;;;;;3.37;2.10;;;16.60;83.40;;;;;;4189355;28;20303;-74
2022/08/09 04:00:25;;;;;;;3.40;2.33;;;16.60;83.90;;;;;;4187071;28;20216;-74
2022/08/09 04:02:29;;;;;;;3.30;2.23;;;16.50;82.70;;;;;;4183147;28;20242;-74
2022/08/09 04:04:32;;;;;;;3.80;2.73;;;16.50;84.00;;;;;;4179521;28;20197;-74
2022/08/09 04:06:35;;;;;;;4.50;2.30;;;16.50;83.20;;;;;;4190854;28;20213;-73
2022/08/09 04:08:37;;;;;;;4.23;2.30;;;16.50;83.70;;;;;;4185925;28;20786;-73
2022/08/09 04:10:41;;;;;;;3.17;2.30;;;16.50;84.80;;;;;;4187809;28;20711;-74
2022/08/09 04:12:47;;;;;;;4.10;2.57;;;16.50;85.90;;;;;;4192202;28;20243;-73
2022/08/09 04:14:49;;;;;;;3.03;2.20;;;16.40;88.20;;;;;;4191685;28;20236;-74
2022/08/09 04:16:51;;;;;;;4.30;2.47;;;16.40;90.70;;;;;;4186504;28;20314;-73
2022/08/09 04:18:53;;;;;;;3.30;2.27;;;16.40;88.60;;;;;;4187357;28;21170;-74
2022/08/09 04:20:55;;;;;;;3.30;2.47;;;16.40;90.60;;;;;;4187745;28;20212;-74
2022/08/09 04:22:57;;;;;;;2.93;2.33;;;16.40;92.30;;;;;;4186848;28;20581;-74
2022/08/09 04:24:59;;;;;;;5.07;2.57;;;16.40;92.30;;;;;;4187896;28;20224;-74
2022/08/09 04:27:01;;;;;;;3.90;2.47;;;16.40;93.50;;;;;;4187258;28;20220;-74
2022/08/09 04:29:04;;;;;;;5.00;2.87;;;16.40;93.90;;;;;;4185278;28;20214;-74
2022/08/09 04:31:07;;;;;;;4.20;2.80;;;16.40;94.00;;;;;;4183109;28;20211;-74
2022/08/09 04:33:09;;;;;;;5.07;2.80;;;16.40;94.40;;;;;;4188623;28;20314;-74
2022/08/09 04:35:13;;;;;;;4.43;3.00;;;16.50;94.60;;;;;;4186511;28;20214;-74
2022/08/09 04:37:15;;;;;;;4.50;2.87;;;16.50;94.70;;;;;;4192278;28;20205;-73
2022/08/09 04:39:17;;;;;;;5.93;3.30;;;16.50;95.40;;;;;;4187300;28;20318;-74
2022/08/09 04:41:20;;;;;;;3.57;2.73;;;16.50;95.90;;;;;;4187144;28;20322;-74
2022/08/09 04:43:22;;;;;;;6.30;2.83;;;16.50;95.90;;;;;;4188850;28;20225;-74
2022/08/09 04:45:25;;;;;;;5.30;2.90;;;16.50;96.40;;;;;;4186031;28;20292;-74
2022/08/09 04:47:28;;;;;;;4.20;3.03;;;16.50;96.10;;;;;;4183051;28;20659;-74
2022/08/09 04:49:36;;;;;;;5.20;3.27;;;16.50;97.00;;;;;;4179280;28;20213;-74
2022/08/09 04:51:39;;;;;;;6.03;3.30;;;16.50;96.90;;;;;;4186455;28;20696;-74
2022/08/09 04:53:41;;;;;;;7.00;3.40;;;16.60;97.70;;;;;;4187266;28;20229;-74
2022/08/09 04:55:43;;;;;;;4.93;3.40;;;16.60;97.60;;;;;;4186676;28;20300;-74
2022/08/09 04:57:45;;;;;;;6.17;3.30;;;16.60;98.00;;;;;;4183188;28;20733;-74
2022/08/09 04:59:47;;;;;;;5.43;3.73;;;16.60;99.00;;;;;;4182145;28;20296;-74
2022/08/09 05:01:50;;;;;;;5.90;3.67;;;16.60;98.90;;;;;;4185297;28;20220;-73
2022/08/09 05:03:52;;;;;;;4.10;3.10;;;16.60;98.80;;;;;;4188300;28;20212;-74
2022/08/09 05:05:54;;;;;;;7.27;3.73;;;16.60;99.70;;;;;;4178628;28;20210;-74
2022/08/09 05:07:56;;;;;;;7.40;3.87;;;16.60;99.90;;;;;;4184304;28;20249;-74
2022/08/09 05:09:59;;;;;;;4.97;3.50;;;16.50;99.90;;;;;;4178962;28;20248;-74
2022/08/09 05:12:01;;;;;;;5.40;3.67;;;16.50;99.90;;;;;;4186819;28;20625;-74
2022/08/09 05:14:03;;;;;;;5.70;3.17;;;16.60;99.90;;;;;;4187363;28;20855;-73
2022/08/09 05:16:05;;;;;;;5.97;3.50;;;16.50;99.90;;;;;;4184387;28;20214;-73
2022/08/09 05:18:08;;;;;;;4.37;2.90;;;16.50;99.90;;;;;;4185971;28;20251;-74
2022/08/09 05:20:11;;;;;;;4.43;3.10;;;16.50;99.90;;;;;;4182458;28;20864;-73
2022/08/09 05:22:13;;;;;;;5.60;3.03;;;16.50;99.90;;;;;;4189239;28;20637;-74
2022/08/09 05:24:15;;;;;;;4.87;3.23;;;16.50;99.90;;;;;;4183501;28;20704;-73
2022/08/09 05:26:17;;;;;;;6.10;3.20;;;16.50;99.90;;;;;;4188218;28;20738;-73
2022/08/09 05:28:19;;;;;;;5.50;3.27;;;16.50;99.90;;;;;;4190077;28;20215;-74
2022/08/09 05:30:22;;;;;;;4.60;2.93;;;16.50;99.90;;;;;;4186065;28;20677;-74
2022/08/09 05:32:24;;;;;;;5.63;3.50;;;16.50;99.90;;;;;;4184923;28;20367;-73
2022/08/09 05:34:32;;;;;;;4.23;2.93;;;16.50;99.90;;;;;;4180044;28;20267;-74
2022/08/09 05:36:33;;;;;;;5.70;3.40;;;16.60;99.90;;;;;;4178138;28;20299;-74
2022/08/09 05:38:35;;;;;;;4.40;3.20;;;16.60;99.90;;;;;;4188360;28;20248;-74
2022/08/09 05:40:37;;;;;;;3.53;3.00;;;16.60;99.90;;;;;;4194093;28;20204;-74
2022/08/09 05:42:39;;;;;;;4.87;3.07;;;16.60;99.90;;;;;;4194987;28;20624;-73
2022/08/09 05:44:41;;;;;;;4.07;2.90;;;16.70;99.90;;;;;;4195818;28;20220;-74
2022/08/09 05:46:43;;;;;;;4.40;3.13;;;16.70;99.90;;;;;;4196922;28;20633;-73
2022/08/09 05:48:45;;;;;;;4.03;3.00;;;16.70;99.90;;;;;;4187763;28;20653;-74
2022/08/09 05:50:48;;;;;;;5.23;3.20;;;16.70;99.90;;;;;;4191212;28;20636;-73
2022/08/09 05:52:51;;;;;;;6.10;3.40;;;16.80;99.90;;;;;;4196204;28;20316;-74
2022/08/09 05:54:54;;;;;;;5.30;3.20;;;16.80;99.90;;;;;;4192902;28;20221;-73
2022/08/09 05:56:55;;;;;;;5.23;3.10;;;16.80;99.90;;;;;;4186983;28;20568;-73
2022/08/09 05:58:57;;;;;;;4.93;3.10;;;16.90;99.90;;;;;;4178530;28;20237;-74
2022/08/09 06:00:59;;;;;;;4.13;3.00;;;16.90;99.90;;;;;;4183941;28;20613;-74
2022/08/09 06:03:03;;;;;;;4.77;3.23;;;17.00;99.70;;;;;;4177860;28;20260;-74
2022/08/09 06:05:06;;;;;;;4.73;3.13;;;17.10;99.60;;;;;;4184707;28;20206;-73
2022/08/09 06:07:09;;;;;;;3.87;3.20;;;17.20;99.40;;;;;;4183777;28;20244;-73
2022/08/09 06:09:11;;;;;;;3.83;2.83;;;17.30;99.10;;;;;;4185960;28;20328;-74
2022/08/09 06:11:13;;;;;;;3.97;2.97;;;17.30;98.70;;;;;;4177760;28;20214;-74
2022/08/09 06:13:15;;;;;;;3.70;3.07;;;17.40;98.20;;;;;;4183758;28;20254;-74
2022/08/09 06:15:17;;;;;;;5.07;3.10;;;17.50;97.60;;;;;;4185581;28;20316;-73
2022/08/09 06:17:19;;;;;;;4.33;3.00;;;17.50;97.00;;;;;;4184727;28;20857;-74
2022/08/09 06:19:21;;;;;;;3.93;3.20;;;17.60;96.60;;;;;;4181318;28;20219;-74
2022/08/09 06:21:23;;;;;;;4.83;3.03;;;17.60;96.20;;;;;;4186679;28;20198;-74
2022/08/09 06:23:28;;;;;;;5.80;3.40;;;17.60;96.10;;;;;;4185619;28;20727;-74
2022/08/09 06:25:30;;;;;;;5.67;3.60;;;17.60;96.00;;;;;;4186655;28;20209;-74
2022/08/09 06:27:31;;;;;;;7.53;3.50;;;17.70;95.60;;;;;;4183382;28;20214;-74
2022/08/09 06:29:33;;;;;;;5.63;3.53;;;17.70;95.40;;;;;;4188334;28;20222;-74
2022/08/09 06:31:36;;;;;;;7.37;3.93;;;17.70;95.10;;;;;;4177795;28;20652;-73
2022/08/09 06:33:39;;;;;;;3.87;3.37;;;17.80;94.70;;;;;;4184681;28;20316;-74
2022/08/09 06:35:41;;;;;;;8.27;3.40;;;17.70;94.00;;;;;;4183524;28;20249;-74
2022/08/09 06:37:43;;;;;;;5.67;3.30;;;17.80;94.30;;;;;;4185460;28;20209;-74
2022/08/09 06:39:46;;;;;;;3.57;3.10;;;17.80;94.10;;;;;;4187754;28;20313;-73
2022/08/09 06:41:48;;;;;;;4.60;3.20;;;17.80;93.60;;;;;;4183962;28;20217;-74
2022/08/09 06:43:50;;;;;;;4.23;3.20;;;17.90;93.50;;;;;;4179885;28;20287;-74
2022/08/09 06:45:52;;;;;;;5.20;3.23;;;17.90;93.20;;;;;;4187148;28;20318;-74
2022/08/09 06:47:54;;;;;;;4.00;2.93;;;17.90;92.20;;;;;;4186076;28;20205;-74
2022/08/09 06:49:56;;;;;;;4.67;3.53;;;17.90;91.70;;;;;;4185692;28;20663;-74
2022/08/09 06:51:58;;;;;;;5.53;3.43;;;18.00;90.70;;;;;;4188787;28;20237;-74
2022/08/09 06:53:59;;;;;;;4.03;3.37;;;18.00;90.60;;;;;;4185010;28;20246;-74
2022/08/09 06:56:03;;;;;;;4.50;3.07;;;18.00;90.10;;;;;;4187584;28;20263;-74
2022/08/09 06:58:05;;;;;;;7.23;3.37;;;18.00;90.50;;;;;;4180282;28;20206;-74
2022/08/09 07:00:09;;;;;;;4.57;3.07;;;18.00;90.80;;;;;;4190411;28;20237;-74
2022/08/09 07:02:11;;;;;;;4.70;3.40;;;18.00;91.10;;;;;;4186888;28;20230;-74
2022/08/09 07:04:12;;;;;;;3.90;2.83;;;18.10;92.10;;;;;;4185536;28;20210;-74
2022/08/09 07:06:14;;;;;;;5.10;3.63;;;18.10;91.70;;;;;;4187370;28;20238;-74
2022/08/09 07:08:17;;;;;;;4.83;3.30;;;18.20;91.80;;;;;;4180055;28;20202;-74
2022/08/09 07:10:19;;;;;;;3.67;2.80;;;18.20;93.00;;;;;;4193787;28;20578;-74
2022/08/09 07:12:22;;;;;;;3.67;3.00;;;18.30;92.90;;;;;;4190467;28;20719;-74
2022/08/09 07:14:24;;;;;;;2.90;2.43;;;18.30;93.30;;;;;;4180037;28;20202;-74
2022/08/09 07:16:26;;;;;;;4.37;3.03;;;18.30;93.50;;;;;;4186199;28;20665;-74
2022/08/09 07:18:28;;;;;;;4.53;3.00;;;18.40;93.40;;;;;;4185938;28;20277;-74
2022/08/09 07:20:29;;;;;;;4.83;3.07;;;18.40;92.60;;;;;;4192158;28;20216;-74
2022/08/09 07:22:31;;;;;;;4.17;2.97;;;18.50;93.00;;;;;;4189461;28;20229;-74
2022/08/09 07:24:33;;;;;;;5.70;3.17;;;18.50;93.60;;;;;;4189286;28;20293;-74
2022/08/09 07:26:35;;;;;;;4.50;3.40;;;18.50;93.50;;;;;;4180257;28;20219;-73
2022/08/09 07:28:39;;;;;;;3.90;3.20;;;18.60;93.30;;;;;;4190064;28;20238;-74
2022/08/09 07:30:40;;;;;;;4.23;3.00;;;18.60;93.10;;;;;;4186839;28;20682;-74
2022/08/09 07:32:43;;;;;;;3.60;2.83;;;18.70;92.90;;;;;;4188272;28;20675;-74
2022/08/09 07:34:44;;;;;;;4.30;3.27;;;18.70;92.70;;;;;;4188472;28;20264;-74
2022/08/09 07:36:46;;;;;;;7.43;3.43;;;18.70;92.40;;;;;;4189068;28;20314;-74
2022/08/09 07:38:48;;;;;;;5.13;3.50;;;18.80;91.40;;;;;;4184237;28;20299;-74
2022/08/09 07:40:51;;;;;;;5.23;3.50;;;18.80;91.30;;;;;;4188354;28;20214;-74
2022/08/09 07:42:56;;;;;;;5.40;3.17;;;18.90;90.90;;;;;;4187268;28;20260;-74
2022/08/09 07:44:59;;;;;;;4.43;3.30;;;18.90;90.80;;;;;;4188235;28;20227;-74
2022/08/09 07:47:01;;;;;;;4.80;3.20;;;19.00;90.40;;;;;;4187184;28;20210;-74
2022/08/09 07:49:03;;;;;;;4.30;3.53;;;19.00;90.30;;;;;;4189167;28;20217;-74
2022/08/09 07:51:05;;;;;;;6.47;3.70;;;19.10;89.00;;;;;;4188891;28;20802;-74
2022/08/09 07:53:07;;;;;;;5.03;3.53;;;19.10;87.30;;;;;;4187695;28;20262;-74
2022/08/09 07:55:09;;;;;;;5.83;3.73;;;19.20;85.80;;;;;;4186685;28;20247;-74
2022/08/09 07:57:11;;;;;;;5.17;2.93;;;19.20;86.10;;;;;;4185353;28;20212;-74
2022/08/09 07:59:13;;;;;;;7.87;3.50;;;19.20;86.30;;;;;;4190837;28;20788;-74
2022/08/09 08:01:17;;;;;;;5.80;3.20;;;19.30;86.10;;;;;;4188705;28;20225;-74
2022/08/09 08:03:18;;;;;;;5.43;3.10;;;19.40;86.40;;;;;;4187385;28;20302;-74
2022/08/09 08:05:20;;;;;;;5.90;3.37;;;19.40;85.90;;;;;;4187365;28;20235;-74
2022/08/09 08:07:22;;;;;;;6.90;3.63;;;19.50;86.60;;;;;;4184030;28;20231;-74
2022/08/09 08:09:24;;;;;;;5.33;3.20;;;19.50;86.10;;;;;;4184508;28;20254;-74
2022/08/09 08:11:26;;;;;;;5.63;3.23;;;19.50;86.30;;;;;;4187481;28;20746;-74
2022/08/09 08:13:28;;;;;;;4.97;3.20;;;19.60;85.00;;;;;;4186628;28;20235;-74
2022/08/09 08:15:30;;;;;;;4.43;2.93;;;19.70;84.20;;;;;;4187902;28;20236;-74
2022/08/09 08:17:33;;;;;;;2.97;2.63;;;19.70;84.20;;;;;;4188592;28;20718;-74
2022/08/09 08:19:35;;;;;;;6.03;2.73;;;19.70;84.20;;;;;;4180934;28;20642;-73
2022/08/09 08:21:40;;;;;;;3.10;2.57;;;19.80;83.10;;;;;;4187162;28;20726;-73
2022/08/09 08:23:42;;;;;;;3.60;2.40;;;19.90;83.30;;;;;;4185851;28;20236;-74
2022/08/09 08:25:45;;;;;;;3.60;2.70;;;19.90;81.10;;;;;;4187009;28;20303;-74
2022/08/09 08:27:47;;;;;;;3.83;2.53;;;19.90;78.60;;;;;;4182260;28;20204;-74
2022/08/09 08:29:49;;;;;;;4.37;2.73;;;20.00;77.90;;;;;;4184290;28;20206;-74
2022/08/09 08:31:51;;;;;;;2.97;2.20;;;20.10;76.70;;;;;;4180521;28;20303;-74
2022/08/09 08:33:54;;;;;;;5.53;3.33;;;20.10;74.00;;;;;;4185459;28;20211;-74
2022/08/09 08:35:56;;;;;;;4.03;2.80;;;20.10;73.50;;;;;;4178789;28;20225;-74
2022/08/09 08:37:58;;;;;;;3.33;2.60;;;20.20;71.80;;;;;;4183554;28;20304;-74
2022/08/09 08:40:00;;;;;;;3.63;2.50;;;20.30;71.90;;;;;;4190643;28;20228;-74
2022/08/09 08:42:02;;;;;;;5.60;2.73;;;20.30;72.20;;;;;;4193291;28;20658;-74
2022/08/09 08:44:04;;;;;;;3.17;2.33;;;20.40;72.30;;;;;;4185455;28;20931;-74
2022/08/09 08:46:10;;;;;;;3.63;2.40;;;20.40;72.50;;;;;;4188149;28;20289;-73
2022/08/09 08:48:12;;;;;;;4.57;2.60;;;20.50;72.90;;;;;;4188335;28;20203;-73
2022/08/09 08:50:17;;;;;;;2.80;2.10;;;20.60;73.40;;;;;;4187070;28;20233;-73
2022/08/09 08:52:20;;;;;;;2.80;2.27;;;20.70;73.40;;;;;;4185926;28;20235;-73
2022/08/09 08:54:22;;;;;;;2.80;2.23;;;20.70;73.40;;;;;;4187138;28;20239;-73
2022/08/09 08:56:24;;;;;;;2.87;2.30;;;20.80;73.00;;;;;;4187744;28;20331;-73
2022/08/09 08:58:28;;;;;;;2.33;2.00;;;20.80;72.40;;;;;;4190000;28;20223;-74
2022/08/09 09:00:30;;;;;;;2.83;2.53;;;20.90;72.00;;;;;;4189650;28;20229;-74
2022/08/09 09:02:33;;;;;;;4.60;2.33;;;21.00;72.30;;;;;;4186358;28;20255;-74
2022/08/09 09:04:37;;;;;;;3.70;2.40;;;21.10;71.60;;;;;;4178352;28;20277;-74
2022/08/09 09:06:42;;;;;;;3.10;2.20;;;21.10;70.00;;;;;;4186621;28;20255;-74
2022/08/09 09:08:46;;;;;;;3.00;2.53;;;21.20;69.00;;;;;;4183066;28;20290;-74
2022/08/09 09:10:49;;;;;;;5.07;2.40;;;21.30;68.60;;;;;;4189022;28;20208;-74
2022/08/09 09:12:52;;;;;;;3.43;2.63;;;21.40;67.30;;;;;;4186988;28;20232;-74
2022/08/09 09:14:56;;;;;;;4.90;2.70;;;21.40;65.90;;;;;;4185666;28;20823;-73
2022/08/09 09:16:59;;;;;;;3.70;2.90;;;21.50;63.30;;;;;;4183637;28;20261;-74
2022/08/09 09:19:02;;;;;;;4.23;2.60;;;21.60;64.00;;;;;;4179988;28;20214;-74
2022/08/09 09:21:07;;;;;;;2.40;2.20;;;21.70;63.60;;;;;;4187639;28;20671;-73
2022/08/09 09:23:10;;;;;;;4.33;2.90;;;21.80;62.90;;;;;;4184894;28;20232;-73
2022/08/09 09:25:13;;;;;;;4.50;2.40;;;21.80;61.00;;;;;;4188276;28;20194;-74
2022/08/09 09:27:19;;;;;;;3.33;2.63;;;21.90;61.30;;;;;;4189087;28;20202;-74
2022/08/09 09:29:29;;;;;;;2.80;2.50;;;22.00;60.30;;;;;;4183374;28;20216;-74
2022/08/09 09:31:30;;;;;;;3.30;2.40;;;22.10;59.10;;;;;;4183249;28;20285;-74
2022/08/09 09:33:34;;;;;;;2.93;2.20;;;22.20;58.50;;;;;;4186449;28;20264;-74
2022/08/09 09:35:51;;;;;;;4.07;2.47;;;22.30;58.20;;;;;;4188428;28;20244;-73
2022/08/09 09:37:54;;;;;;;5.07;2.40;;;22.30;58.10;;;;;;4184008;28;20210;-74
2022/08/09 09:39:57;;;;;;;2.93;2.20;;;22.40;57.50;;;;;;4188566;28;20209;-74
2022/08/09 09:41:59;;;;;;;3.83;2.50;;;22.50;56.30;;;;;;4187041;28;20293;-74
2022/08/09 09:44:03;;;;;;;3.13;2.30;;;22.60;55.00;;;;;;4187485;28;20640;-74
2022/08/09 09:46:06;;;;;;;3.13;2.13;;;22.70;54.00;;;;;;4187499;28;20218;-74
2022/08/09 09:48:08;;;;;;;2.73;2.30;;;22.70;53.60;;;;;;4181869;28;20194;-74
2022/08/09 09:50:10;;;;;;;2.90;2.07;;;22.80;52.40;;;;;;4185030;28;20207;-74
2022/08/09 09:52:12;;;;;;;3.53;2.43;;;22.90;50.50;;;;;;4185213;28;20241;-74
2022/08/09 09:54:16;;;;;;;3.90;2.20;;;23.00;50.30;;;;;;4186013;28;20308;-74
2022/08/09 09:56:32;;;;;;;3.80;2.37;;;23.00;49.60;;;;;;4180724;28;20230;-74
2022/08/09 09:58:48;;;;;;;4.00;2.50;;;23.20;48.60;;;;;;4177673;28;20213;-74
2022/08/09 10:00:53;;;;;;;2.70;2.00;;;23.30;47.10;;;;;;4187143;28;20245;-74
2022/08/09 10:02:57;;;;;;;3.90;1.90;;;23.30;47.30;;;;;;4187604;28;20215;-74
2022/08/09 10:05:07;;;;;;;2.97;1.83;;;23.50;46.80;;;;;;4184779;28;20219;-74
2022/08/09 10:07:23;;;;;;;4.30;2.20;;;23.50;46.40;;;;;;4186980;28;20212;-74
2022/08/09 10:09:24;;;;;;;7.30;2.87;;;23.60;46.30;;;;;;4177679;28;20240;-74
2022/08/09 10:11:30;;;;;;;3.60;2.03;;;23.70;45.20;;;;;;4196127;28;20214;-74
2022/08/09 10:13:41;;;;;;;4.27;2.63;;;23.80;44.80;;;;;;4184229;28;20225;-74
2022/08/09 10:15:48;;;;;;;3.40;2.27;;;23.90;44.30;;;;;;4187095;28;20213;-74
2022/08/09 10:17:52;;;;;;;2.23;1.90;;;24.00;44.50;;;;;;4184497;28;20212;-74
2022/08/09 10:19:54;;;;;;;3.47;2.17;;;24.10;44.20;;;;;;4179985;28;20206;-74
2022/08/09 10:21:56;;;;;;;4.40;1.83;;;24.10;44.30;;;;;;4183221;28;20250;-74
2022/08/09 10:24:01;;;;;;;3.23;2.00;;;24.20;44.10;;;;;;4184850;28;20211;-74
2022/08/09 10:26:03;;;;;;;2.60;2.00;;;24.30;43.50;;;;;;4187470;28;20214;-74
2022/08/09 10:28:07;;;;;;;2.27;1.87;;;24.40;43.20;;;;;;4186831;28;20555;-74
2022/08/09 10:30:13;;;;;;;3.17;1.90;;;24.50;42.70;;;;;;4177801;28;20930;-74
2022/08/09 10:32:15;;;;;;;2.70;2.00;;;24.50;41.50;;;;;;4184373;28;20244;-74
2022/08/09 10:34:17;;;;;;;2.57;1.93;;;24.60;40.90;;;;;;4187312;28;20879;-74
2022/08/09 10:36:19;;;;;;;3.83;1.97;;;24.70;40.00;;;;;;4184050;28;20834;-74
2022/08/09 10:38:21;;;;;;;2.60;1.77;;;24.80;39.80;;;;;;4191372;28;20705;-74
2022/08/09 10:40:24;;;;;;;1.90;1.63;;;24.90;39.10;;;;;;4191138;28;20268;-74
2022/08/09 10:42:26;;;;;;;3.00;1.87;;;25.00;39.60;;;;;;4186735;28;20233;-75
2022/08/09 10:44:30;;;;;;;1.97;1.77;;;25.10;39.30;;;;;;4186342;28;20785;-74
2022/08/09 10:47:14;;;;;;;2.20;1.70;;;25.20;39.00;;;;;;4183647;28;20217;-74